createdAt,value
2023-05-12T00:04:39.680Z,10.43
2023-05-12T00:09:41.264Z,10.30
2023-05-12T00:14:43.281Z,9.99
2023-05-12T00:19:43.511Z,9.95
2023-05-12T00:24:46.342Z,10.13
2023-05-12T00:29:52.777Z,9.69
2023-05-12T00:34:54.376Z,9.86
2023-05-12T00:39:54.964Z,10.07
2023-05-12T00:44:57.002Z,10.00
2023-05-12T00:49:54.455Z,9.55
2023-05-12T00:54:57.345Z,9.82
2023-05-12T00:59:59.049Z,9.48
2023-05-12T01:04:57.867Z,9.89
2023-05-12T01:09:56.773Z,9.20
2023-05-12T01:15:13.788Z,9.23
2023-05-12T01:20:22.743Z,9.10
2023-05-12T01:25:28.157Z,9.51
2023-05-12T01:30:36.379Z,8.82
2023-05-12T01:35:39.859Z,8.96
2023-05-12T01:40:39.936Z,9.07
2023-05-12T01:45:44.616Z,8.98
2023-05-12T01:50:50.744Z,9.35
2023-05-12T01:55:52.628Z,9.13
2023-05-12T02:00:55.972Z,8.69
2023-05-12T02:06:16.584Z,8.97
2023-05-12T02:11:21.758Z,9.13
2023-05-12T02:16:25.641Z,9.52
2023-05-12T02:21:28.131Z,9.29
2023-05-12T02:26:29.666Z,8.97
2023-05-12T02:31:27.909Z,8.85
2023-05-12T02:36:26.128Z,8.92
2023-05-12T02:41:25.919Z,9.03
2023-05-12T02:46:38.230Z,9.17
2023-05-12T02:51:38.180Z,8.95
2023-05-12T02:56:35.695Z,9.27
2023-05-12T03:01:33.860Z,9.09
2023-05-12T03:06:34.646Z,9.10
2023-05-12T03:11:41.935Z,9.13
2023-05-12T03:16:42.838Z,9.01
2023-05-12T03:21:40.773Z,9.34
2023-05-12T03:26:50.381Z,9.35
2023-05-12T03:31:51.976Z,9.14
2023-05-12T03:37:18.043Z,9.46
2023-05-12T03:42:32.784Z,9.26
2023-05-12T03:47:39.914Z,9.75
2023-05-12T03:52:49.110Z,9.60
2023-05-12T03:57:48.592Z,9.56
2023-05-12T04:02:46.747Z,9.69
2023-05-12T04:07:56.294Z,9.50
2023-05-12T04:13:05.716Z,9.81
2023-05-12T04:18:10.924Z,10.71
2023-05-12T04:23:29.217Z,10.95
2023-05-12T04:29:00.892Z,10.90
2023-05-12T04:34:18.255Z,11.50
2023-05-12T04:45:30.416Z,11.90
2023-05-12T04:50:42.989Z,11.42
2023-05-12T04:56:18.805Z,11.33
2023-05-12T05:07:05.119Z,12.33
2023-05-12T05:12:32.121Z,12.76
2023-05-12T05:17:55.275Z,12.64
2023-05-12T05:23:13.010Z,12.55
2023-05-12T05:28:52.497Z,12.28
2023-05-12T05:33:54.917Z,12.40
2023-05-12T05:38:58.684Z,12.84
2023-05-12T05:44:14.592Z,12.93
2023-05-12T05:49:24.037Z,12.88
2023-05-12T05:54:29.501Z,13.28
2023-05-12T05:59:29.941Z,13.13
2023-05-12T06:04:33.331Z,13.02
2023-05-12T06:09:48.050Z,13.11
2023-05-12T06:14:51.654Z,13.80
2023-05-12T06:20:08.468Z,13.51
2023-05-12T06:25:16.565Z,14.15
2023-05-12T06:30:45.094Z,14.47
2023-05-12T06:41:35.014Z,14.35
2023-05-12T06:47:08.156Z,14.78
2023-05-12T06:52:13.612Z,15.02
2023-05-12T06:57:16.560Z,15.39
2023-05-12T07:02:22.449Z,15.11
2023-05-12T07:07:26.391Z,15.00
2023-05-12T07:12:33.099Z,15.06
2023-05-12T07:17:42.414Z,14.88
2023-05-12T07:22:55.086Z,14.92
2023-05-12T07:34:55.465Z,14.84
2023-05-12T07:39:59.279Z,15.04
2023-05-12T07:45:35.709Z,15.40
2023-05-12T07:52:09.204Z,15.52
2023-05-12T07:57:42.925Z,16.38
2023-05-12T08:03:32.414Z,16.62
2023-05-12T08:08:38.890Z,16.30
2023-05-12T08:14:04.218Z,16.06
2023-05-12T08:19:20.933Z,16.44
2023-05-12T08:31:11.275Z,16.32
2023-05-12T08:36:54.113Z,16.76
2023-05-12T08:42:36.058Z,16.68
2023-05-12T08:47:52.765Z,17.06
2023-05-12T08:53:02.369Z,17.04
2023-05-12T08:58:09.685Z,17.67
2023-05-12T09:09:07.955Z,18.61
2023-05-12T09:14:32.464Z,19.11
2023-05-12T09:20:05.503Z,18.28
2023-05-12T09:25:55.372Z,18.60
2023-05-12T09:31:19.333Z,18.70
2023-05-12T09:37:42.356Z,18.65
2023-05-12T09:42:47.195Z,18.16
2023-05-12T09:48:09.801Z,18.27
2023-05-12T09:53:44.840Z,18.07
2023-05-12T09:58:54.981Z,17.60
2023-05-12T10:04:04.535Z,17.29
2023-05-12T10:09:13.233Z,17.06
2023-05-12T10:14:47.675Z,17.21
2023-05-12T10:20:07.615Z,16.93
2023-05-12T10:25:51.745Z,17.07
2023-05-12T10:31:10.433Z,17.77
2023-05-12T10:50:13.365Z,18.20
2023-05-12T11:02:15.690Z,17.90
2023-05-12T11:07:28.548Z,17.18
2023-05-12T11:13:29.966Z,17.57
2023-05-12T11:18:41.152Z,17.64
2023-05-12T11:29:43.214Z,17.88
2023-05-12T11:35:27.082Z,17.80
2023-05-12T11:40:47.835Z,18.54
2023-05-12T11:46:04.139Z,18.61
2023-05-12T11:51:24.843Z,18.50
2023-05-12T11:56:56.604Z,19.39
2023-05-12T12:02:19.569Z,19.97
2023-05-12T12:20:28.518Z,18.85
2023-05-12T12:26:30.131Z,18.65
2023-05-12T12:32:28.096Z,18.66
2023-05-12T12:44:48.669Z,19.03
2023-05-12T12:50:33.899Z,19.04
2023-05-12T12:56:06.529Z,19.00
2023-05-12T13:01:18.536Z,18.72
2023-05-12T13:07:02.990Z,18.96
2023-05-12T13:26:04.791Z,19.15
2023-05-12T13:45:19.766Z,19.25
2023-05-12T13:58:00.332Z,18.54
2023-05-12T14:03:07.474Z,18.20
2023-05-12T14:08:19.193Z,18.43
2023-05-12T14:13:32.095Z,18.48
2023-05-12T14:19:32.465Z,18.41
2023-05-12T14:25:09.956Z,18.39
2023-05-12T14:30:37.216Z,18.39
2023-05-12T14:41:51.362Z,19.18
2023-05-12T14:47:49.122Z,19.03
2023-05-12T14:53:10.794Z,19.02
2023-05-12T14:58:32.018Z,18.95
2023-05-12T15:03:42.890Z,18.75
2023-05-12T15:08:54.251Z,18.74
2023-05-12T15:14:09.198Z,18.32
2023-05-12T15:19:41.838Z,18.48
2023-05-12T15:25:30.618Z,19.00
2023-05-12T15:31:08.559Z,18.68
2023-05-12T15:36:41.847Z,18.61
2023-05-12T15:42:33.427Z,18.46
2023-05-12T15:47:56.296Z,18.47
2023-05-12T15:53:15.085Z,18.56
2023-05-12T15:58:29.802Z,18.44
2023-05-12T16:04:07.543Z,18.30
2023-05-12T16:16:33.670Z,17.83
2023-05-12T16:22:15.885Z,17.79
2023-05-12T16:28:36.541Z,17.69
2023-05-12T16:34:05.248Z,17.28
2023-05-12T16:39:20.228Z,17.28
2023-05-12T16:44:34.320Z,17.45
2023-05-12T16:50:00.442Z,17.09
2023-05-12T16:55:06.768Z,17.36
2023-05-12T17:01:00.390Z,16.93
2023-05-12T17:12:36.520Z,17.12
2023-05-12T17:17:49.748Z,16.60
2023-05-12T17:23:16.440Z,16.69
2023-05-12T17:28:24.862Z,16.82
2023-05-12T17:39:43.715Z,16.28
2023-05-12T17:44:47.824Z,16.50
2023-05-12T17:50:01.101Z,16.65
2023-05-12T17:55:09.063Z,16.10
2023-05-12T18:00:10.022Z,16.36
2023-05-12T18:05:28.531Z,15.86
2023-05-12T18:10:29.079Z,16.08
2023-05-12T18:15:37.598Z,16.26
2023-05-12T18:20:47.796Z,16.09
2023-05-12T18:25:55.677Z,15.92
2023-05-12T18:31:09.268Z,16.20
2023-05-12T18:36:17.145Z,16.22
2023-05-12T18:41:25.800Z,15.81
2023-05-12T18:47:51.732Z,15.58
2023-05-12T18:58:48.016Z,15.99
2023-05-12T19:03:56.134Z,16.12
2023-05-12T19:09:13.968Z,16.25
2023-05-12T19:14:17.492Z,16.31
2023-05-12T19:19:27.198Z,16.81
2023-05-12T19:24:40.225Z,16.95
2023-05-12T19:29:52.290Z,17.15
2023-05-12T19:34:55.819Z,16.91
2023-05-12T19:40:00.300Z,16.92
2023-05-12T19:45:08.323Z,17.02
2023-05-12T19:50:24.484Z,17.23
2023-05-12T19:55:34.466Z,17.38
2023-05-12T20:00:34.440Z,16.88
2023-05-12T20:05:37.341Z,17.01
2023-05-12T20:10:42.531Z,17.22
2023-05-12T20:15:43.540Z,16.66
2023-05-12T20:20:45.873Z,16.64
2023-05-12T20:25:44.450Z,16.79
2023-05-12T20:30:47.271Z,16.91
2023-05-12T20:35:44.508Z,16.92
2023-05-12T20:40:58.607Z,16.98
2023-05-12T20:45:59.275Z,16.48
2023-05-12T20:50:59.349Z,16.53
2023-05-12T20:56:17.503Z,16.88
2023-05-12T21:01:18.510Z,16.67
2023-05-12T21:06:21.306Z,16.51
2023-05-12T21:11:19.775Z,16.50
2023-05-12T21:16:20.638Z,16.56
2023-05-12T21:21:17.785Z,16.18
2023-05-12T21:26:18.531Z,16.17
2023-05-12T21:31:21.526Z,16.29
2023-05-12T21:36:18.835Z,15.93
2023-05-12T21:41:22.299Z,15.91
2023-05-12T21:46:24.879Z,16.01
2023-05-12T21:51:35.146Z,16.05
2023-05-12T21:56:34.691Z,15.56
2023-05-12T22:01:34.916Z,15.32
2023-05-12T22:06:43.444Z,15.30
2023-05-12T22:11:47.666Z,15.27
2023-05-12T22:17:13.103Z,15.03
2023-05-12T22:22:19.814Z,15.10
2023-05-12T22:27:22.987Z,15.09
2023-05-12T22:32:22.885Z,15.34
2023-05-12T22:37:23.704Z,14.89
2023-05-12T22:42:23.611Z,15.11
2023-05-12T22:47:21.194Z,14.78
2023-05-12T22:52:20.204Z,14.77
2023-05-12T22:57:19.421Z,14.95
2023-05-12T23:02:20.680Z,15.02
2023-05-12T23:07:18.868Z,14.64
2023-05-12T23:12:20.765Z,14.57
2023-05-12T23:17:22.976Z,14.67
2023-05-12T23:22:38.794Z,14.56
2023-05-12T23:27:43.287Z,14.50
2023-05-12T23:32:48.663Z,14.13
2023-05-12T23:39:04.341Z,14.53
2023-05-12T23:43:57.425Z,14.20
2023-05-12T23:49:03.000Z,14.42
2023-05-12T23:54:06.923Z,14.25
2023-05-12T23:59:04.674Z,13.81
